Overview Statistics Trail Chart Weather Telemetry Raw packets
 

This is the latest recevied weather packets stored in our database for station/object YD2CLX-11. If no packets are shown the sender has not sent any weather packets the latest 10 day(s).

<< 41 42 43 44 45 46 47 >>
Time Temp. Humidity Pressure Rain* Wind** Luminosity Snow
1787966123 33.33° C 51% 1000.9 hPa - - - -
1787965522 32.78° C 51% 1000.9 hPa - - - -
1787964921 33.33° C 50% 1000.9 hPa - - - -
1787964320 32.22° C 50% 1000.9 hPa - - - -
1787963726 31.67° C 55% 1000.8 hPa - - - -
1787963118 31.11° C 58% 1000.8 hPa - - - -
1787962517 30° C 62% 1000.8 hPa - - - -
1787961916 28.89° C 64% 1000.8 hPa - - - -
1787961315 27.78° C 64% 1001 hPa - - - -
1787960714 26.67° C 67% 1000.8 hPa - - - -
1787960113 25.56° C 67% 1000.8 hPa - - - -
1787959512 24.44° C 68% 1000.7 hPa - - - -
1787958911 23.89° C 69% 1000.5 hPa - - - -
1787958309 23.89° C 69% 1000.5 hPa - - - -
1787957708 21.67° C 75% 1000.5 hPa - - - -
1787957106 18.33° C 84% 1000.4 hPa - - - -
1787956504 18.33° C 85% 1000.3 hPa - - - -
1787955903 17.78° C 85% 1000.2 hPa - - - -
1787955302 17.78° C 86% 1000.2 hPa - - - -
1787954701 17.78° C 86% 1000.1 hPa - - - -
1787954100 17.78° C 85% 1000.1 hPa - - - -
1787953499 17.78° C 85% 1000 hPa - - - -
1787952899 18.33° C 85% 1000 hPa - - - -
1787952297 18.33° C 85% 999.9 hPa - - - -
1787951696 18.33° C 85% 999.8 hPa - - - -

* Rain since midnight (hover to see other rain measurements)
** Current wind speed in m/s (hover to see current wind gust speed)